createdAt,value
2023-01-04T00:01:23.086Z,1.55
2023-01-04T00:03:50.144Z,1.80
2023-01-04T00:06:17.352Z,1.60
2023-01-04T00:08:46.184Z,1.63
2023-01-04T00:11:18.183Z,1.25
2023-01-04T00:13:45.963Z,1.83
2023-01-04T00:16:15.564Z,1.98
2023-01-04T00:18:45.487Z,1.30
2023-01-04T00:21:17.408Z,1.80
2023-01-04T00:23:46.631Z,1.95
2023-01-04T00:26:16.134Z,1.83
2023-01-04T00:28:48.437Z,2.38
2023-01-04T00:31:18.623Z,1.60
2023-01-04T00:33:45.256Z,1.85
2023-01-04T00:36:14.323Z,1.30
2023-01-04T00:38:42.193Z,1.58
2023-01-04T00:41:18.934Z,1.70
2023-01-04T00:43:57.300Z,1.38
2023-01-04T00:46:23.895Z,1.48
2023-01-04T00:48:52.781Z,1.30
2023-01-04T00:51:21.905Z,2.00
2023-01-04T00:53:48.480Z,1.50
2023-01-04T00:56:15.088Z,1.40
2023-01-04T00:58:41.703Z,1.40
2023-01-04T01:01:08.928Z,1.52
2023-01-04T01:03:38.812Z,1.40
2023-01-04T01:06:07.963Z,1.40
2023-01-04T01:08:36.070Z,1.20
2023-01-04T01:11:07.651Z,1.70
2023-01-04T01:13:35.722Z,1.20
2023-01-04T01:16:07.428Z,1.60
2023-01-04T01:18:34.844Z,1.30
2023-01-04T01:21:05.508Z,1.20
2023-01-04T01:23:34.318Z,1.35
2023-01-04T01:26:02.237Z,1.40
2023-01-04T01:28:29.139Z,1.20
2023-01-04T01:30:56.010Z,1.15
2023-01-04T01:33:22.548Z,1.08
2023-01-04T01:35:49.100Z,1.23
2023-01-04T01:38:16.948Z,1.10
2023-01-04T01:40:44.900Z,1.20
2023-01-04T01:43:23.208Z,1.13
2023-01-04T01:45:57.203Z,1.02
2023-01-04T01:48:29.465Z,1.00
2023-01-04T01:51:01.292Z,1.00
2023-01-04T01:53:30.289Z,1.20
2023-01-04T01:55:58.330Z,1.20
2023-01-04T01:58:47.768Z,1.20
2023-01-04T02:01:14.517Z,1.15
2023-01-04T02:03:43.491Z,1.17
2023-01-04T02:06:19.159Z,1.05
2023-01-04T02:08:46.532Z,1.17
2023-01-04T02:11:13.073Z,1.02
2023-01-04T02:13:58.814Z,1.20
2023-01-04T02:16:46.575Z,1.05
2023-01-04T02:19:18.904Z,1.00
2023-01-04T02:22:00.148Z,1.40
2023-01-04T02:25:07.410Z,1.02
2023-01-04T02:27:55.362Z,0.90
2023-01-04T02:30:30.967Z,0.80
2023-01-04T02:33:15.737Z,1.20
2023-01-04T02:35:55.226Z,1.10
2023-01-04T02:38:37.061Z,0.80
2023-01-04T02:41:28.180Z,1.08
2023-01-04T02:44:32.189Z,1.00
2023-01-04T02:47:04.663Z,0.88
2023-01-04T02:49:49.868Z,1.10
2023-01-04T02:52:20.323Z,0.70
2023-01-04T02:54:49.663Z,0.82
2023-01-04T02:57:28.057Z,1.00
2023-01-04T03:00:23.859Z,0.90
2023-01-04T03:03:26.532Z,1.10
2023-01-04T03:06:15.294Z,0.80
2023-01-04T03:09:00.023Z,0.90
2023-01-04T03:11:59.721Z,0.80
2023-01-04T03:14:34.788Z,1.00
2023-01-04T03:17:07.912Z,0.90
2023-01-04T03:19:52.070Z,0.82
2023-01-04T03:22:59.139Z,0.90
2023-01-04T03:25:52.870Z,1.00
2023-01-04T03:28:41.907Z,1.00
2023-01-04T03:31:43.919Z,1.27
2023-01-04T03:34:31.528Z,1.13
2023-01-04T03:37:28.167Z,1.30
2023-01-04T03:40:46.195Z,1.55
2023-01-04T03:43:46.106Z,1.40
2023-01-04T03:46:46.396Z,1.40
2023-01-04T03:49:44.939Z,1.58
2023-01-04T03:52:14.440Z,1.23
2023-01-04T03:54:49.357Z,1.40
2023-01-04T03:57:17.424Z,1.30
2023-01-04T03:59:53.888Z,1.60
2023-01-04T04:02:28.314Z,1.42
2023-01-04T04:05:13.589Z,1.80
2023-01-04T04:07:58.451Z,1.50
2023-01-04T04:10:25.047Z,1.50
2023-01-04T04:12:52.406Z,1.40
2023-01-04T04:15:19.005Z,1.27
2023-01-04T04:17:45.561Z,1.33
2023-01-04T04:20:13.116Z,1.33
2023-01-04T04:22:40.546Z,2.20
2023-01-04T04:25:10.077Z,1.52
2023-01-04T04:27:36.576Z,1.67
2023-01-04T04:30:03.837Z,1.30
2023-01-04T04:32:32.738Z,1.35
2023-01-04T04:34:59.288Z,1.25
2023-01-04T04:37:30.342Z,1.27
2023-01-04T04:39:59.409Z,1.60
2023-01-04T04:42:26.018Z,1.58
2023-01-04T04:44:52.591Z,1.70
2023-01-04T04:47:19.441Z,1.40
2023-01-04T04:49:45.987Z,1.70
2023-01-04T04:52:12.513Z,1.42
2023-01-04T04:54:39.110Z,1.27
2023-01-04T04:57:06.389Z,1.52
2023-01-04T04:59:32.989Z,1.60
2023-01-04T05:01:59.810Z,1.60
2023-01-04T05:04:31.355Z,1.50
2023-01-04T05:07:00.237Z,1.50
2023-01-04T05:09:26.841Z,1.63
2023-01-04T05:12:12.040Z,1.50
2023-01-04T05:14:40.888Z,1.20
2023-01-04T05:17:07.514Z,1.23
2023-01-04T05:19:34.061Z,1.40
2023-01-04T05:22:00.631Z,1.33
2023-01-04T05:24:27.240Z,1.30
2023-01-04T05:26:53.804Z,1.08
2023-01-04T05:29:38.922Z,1.25
2023-01-04T05:32:05.839Z,1.48
2023-01-04T05:34:34.900Z,1.23
2023-01-04T05:37:01.610Z,1.05
2023-01-04T05:39:28.191Z,1.10
2023-01-04T05:42:13.332Z,1.30
2023-01-04T05:44:39.838Z,1.27
2023-01-04T05:47:14.699Z,1.27
2023-01-04T05:49:41.750Z,1.25
2023-01-04T05:52:08.337Z,1.38
2023-01-04T05:54:34.895Z,1.30
2023-01-04T05:57:03.710Z,1.33
2023-01-04T05:59:34.373Z,1.05
2023-01-04T06:02:07.133Z,1.35
2023-01-04T06:04:36.772Z,1.52
2023-01-04T06:07:03.287Z,1.08
2023-01-04T06:09:29.873Z,1.20
2023-01-04T06:11:58.778Z,1.27
2023-01-04T06:14:25.324Z,2.10
2023-01-04T06:16:52.016Z,1.58
2023-01-04T06:19:20.931Z,1.60
2023-01-04T06:21:47.594Z,1.30
2023-01-04T06:24:14.228Z,1.13
2023-01-04T06:26:40.796Z,1.50
2023-01-04T06:29:07.428Z,1.20
2023-01-04T06:31:34.048Z,1.30
2023-01-04T06:34:01.020Z,1.45
2023-01-04T06:36:27.830Z,1.60
2023-01-04T06:38:59.275Z,1.40
2023-01-04T06:41:27.045Z,1.40
2023-01-04T06:43:53.660Z,1.20
2023-01-04T06:46:20.601Z,1.33
2023-01-04T06:48:50.074Z,1.08
2023-01-04T06:51:16.596Z,1.20
2023-01-04T06:53:43.192Z,1.20
2023-01-04T06:56:09.781Z,1.08
2023-01-04T06:58:36.777Z,1.20
2023-01-04T07:01:03.765Z,1.00
2023-01-04T07:03:30.486Z,1.20
2023-01-04T07:05:57.407Z,1.15
2023-01-04T07:08:24.035Z,1.00
2023-01-04T07:10:51.451Z,1.27
2023-01-04T07:13:18.015Z,1.48
2023-01-04T07:15:44.625Z,1.20
2023-01-04T07:18:11.787Z,1.20
2023-01-04T07:20:38.909Z,1.25
2023-01-04T07:23:06.733Z,1.10
2023-01-04T07:25:33.408Z,1.23
2023-01-04T07:28:00.159Z,1.60
2023-01-04T07:30:26.766Z,1.45
2023-01-04T07:32:54.400Z,1.48
2023-01-04T07:35:21.805Z,3.90
2023-01-04T07:37:53.795Z,3.67
2023-01-04T07:40:24.339Z,3.22
2023-01-04T07:42:58.405Z,5.65
2023-01-04T07:45:25.605Z,8.05
2023-01-04T07:47:52.141Z,5.15
2023-01-04T07:50:18.700Z,1.50
2023-01-04T07:52:47.779Z,2.95
2023-01-04T07:55:16.572Z,4.72
2023-01-04T07:57:43.121Z,1.48
2023-01-04T08:00:11.508Z,1.30
2023-01-04T08:02:40.521Z,1.10
2023-01-04T08:05:07.523Z,1.40
2023-01-04T08:07:34.136Z,1.63
2023-01-04T08:10:01.809Z,1.10
2023-01-04T08:12:30.880Z,1.38
2023-01-04T08:14:57.529Z,1.70
2023-01-04T08:17:24.123Z,1.10
2023-01-04T08:19:50.706Z,1.00
2023-01-04T08:22:20.264Z,1.40
2023-01-04T08:24:46.888Z,1.40
2023-01-04T08:27:13.507Z,2.08
2023-01-04T08:29:40.075Z,1.10
2023-01-04T08:32:07.099Z,2.13
2023-01-04T08:34:33.660Z,1.25
2023-01-04T08:37:00.212Z,1.50
2023-01-04T08:39:29.563Z,1.02
2023-01-04T08:41:58.947Z,1.25
2023-01-04T08:44:28.992Z,1.58
2023-01-04T08:46:55.840Z,1.30
2023-01-04T08:49:22.940Z,1.10
2023-01-04T08:51:49.731Z,1.35
2023-01-04T08:54:16.635Z,1.10
2023-01-04T08:56:44.134Z,1.20
2023-01-04T08:59:12.673Z,1.10
2023-01-04T09:01:39.998Z,1.23
2023-01-04T09:04:07.195Z,3.15
2023-01-04T09:06:34.316Z,5.25
2023-01-04T09:09:00.960Z,1.52
2023-01-04T09:11:27.639Z,1.65
2023-01-04T09:13:59.739Z,4.85
2023-01-04T09:16:33.721Z,2.75
2023-01-04T09:19:00.470Z,1.30
2023-01-04T09:21:27.243Z,2.08
2023-01-04T09:23:57.369Z,1.52
2023-01-04T09:26:24.590Z,2.47
2023-01-04T09:28:55.844Z,5.55
2023-01-04T09:31:25.528Z,1.52
2023-01-04T09:36:41.741Z,1.55
2023-01-04T09:39:10.749Z,1.20
2023-01-04T09:41:49.823Z,1.50
2023-01-04T09:44:54.507Z,1.48
2023-01-04T09:47:19.954Z,1.50
2023-01-04T09:50:00.162Z,1.40
2023-01-04T09:53:09.288Z,1.55
2023-01-04T09:55:41.344Z,1.90
2023-01-04T09:58:27.018Z,1.27
2023-01-04T10:01:21.779Z,1.45
2023-01-04T10:04:33.928Z,1.70
2023-01-04T10:07:05.132Z,2.33
2023-01-04T10:09:32.322Z,1.33
2023-01-04T10:12:13.849Z,1.35
2023-01-04T10:14:46.359Z,1.30
2023-01-04T10:17:55.240Z,1.48
2023-01-04T10:23:47.850Z,1.48
2023-01-04T10:26:18.912Z,1.60
2023-01-04T10:29:07.831Z,1.50
2023-01-04T10:31:54.965Z,1.50
2023-01-04T10:34:28.151Z,1.60
2023-01-04T10:37:04.353Z,1.73
2023-01-04T10:39:35.949Z,1.33
2023-01-04T10:42:30.421Z,1.45
2023-01-04T10:45:45.295Z,1.40
2023-01-04T10:48:38.705Z,1.50
2023-01-04T10:51:10.306Z,1.60
2023-01-04T10:53:55.267Z,1.38
2023-01-04T10:56:33.340Z,1.23
2023-01-04T10:59:08.467Z,1.60
2023-01-04T11:01:48.160Z,1.50
2023-01-04T11:04:39.951Z,1.45
2023-01-04T11:07:20.587Z,1.40
2023-01-04T11:10:23.999Z,1.60
2023-01-04T11:12:50.660Z,1.30
2023-01-04T11:15:17.292Z,1.27
2023-01-04T11:17:45.538Z,1.40
2023-01-04T11:20:12.289Z,1.42
2023-01-04T11:22:45.014Z,1.30
2023-01-04T11:25:35.923Z,1.00
2023-01-04T11:28:15.985Z,0.93
2023-01-04T11:30:48.769Z,1.00
2023-01-04T11:33:22.742Z,8.40
2023-01-04T11:35:55.784Z,4.07
2023-01-04T11:38:25.477Z,1.63
2023-01-04T11:41:01.902Z,1.10
2023-01-04T11:43:33.289Z,1.10
2023-01-04T11:46:02.968Z,0.95
2023-01-04T11:48:44.633Z,2.05
2023-01-04T11:51:26.798Z,0.90
2023-01-04T11:54:01.531Z,1.05
2023-01-04T11:56:30.699Z,0.90
2023-01-04T11:59:17.723Z,0.93
2023-01-04T12:01:51.743Z,0.80
2023-01-04T12:04:27.848Z,0.90
2023-01-04T12:06:56.859Z,1.52
2023-01-04T12:09:23.724Z,1.10
2023-01-04T12:11:52.919Z,1.05
2023-01-04T12:14:36.503Z,1.52
2023-01-04T12:17:15.355Z,1.13
2023-01-04T12:19:43.775Z,0.90
2023-01-04T12:22:35.947Z,0.98
2023-01-04T12:25:06.565Z,0.90
2023-01-04T12:27:34.041Z,1.02
2023-01-04T12:30:03.276Z,1.30
2023-01-04T12:32:32.031Z,1.48
2023-01-04T12:35:01.023Z,1.30
2023-01-04T12:37:42.700Z,1.23
2023-01-04T12:40:46.602Z,1.05
2023-01-04T12:43:16.167Z,1.30
2023-01-04T12:45:48.336Z,1.20
2023-01-04T12:48:45.962Z,1.50
2023-01-04T12:51:35.321Z,1.67
2023-01-04T12:54:06.095Z,1.63
2023-01-04T12:57:10.666Z,1.50
2023-01-04T12:59:39.544Z,1.58
2023-01-04T13:02:17.673Z,1.63
2023-01-04T13:04:44.850Z,1.70
2023-01-04T13:07:19.428Z,1.65
2023-01-04T13:09:57.727Z,1.98
2023-01-04T13:13:05.845Z,1.60
2023-01-04T13:15:45.682Z,1.73
2023-01-04T13:18:43.200Z,1.80
2023-01-04T13:21:23.148Z,1.63
2023-01-04T13:23:59.978Z,2.05
2023-01-04T13:26:36.174Z,1.70
2023-01-04T13:29:11.780Z,2.97
2023-01-04T13:31:59.752Z,2.83
2023-01-04T13:34:52.222Z,2.47
2023-01-04T13:37:27.577Z,3.45
2023-01-04T13:40:19.571Z,2.13
2023-01-04T13:42:49.600Z,2.10
2023-01-04T13:45:33.419Z,2.10
2023-01-04T13:48:03.184Z,2.08
2023-01-04T13:50:40.417Z,2.10
2023-01-04T13:53:17.623Z,2.00
2023-01-04T13:55:44.199Z,1.85
2023-01-04T13:58:21.899Z,2.20
2023-01-04T14:00:57.947Z,2.30
2023-01-04T14:03:32.714Z,1.85
2023-01-04T14:06:21.452Z,2.28
2023-01-04T14:09:17.925Z,1.55
2023-01-04T14:12:09.160Z,1.58
2023-01-04T14:14:45.121Z,1.48
2023-01-04T14:17:16.622Z,1.85
2023-01-04T14:19:58.461Z,1.45
2023-01-04T14:22:40.413Z,1.63
2023-01-04T14:25:38.150Z,1.42
2023-01-04T14:28:24.610Z,1.92
2023-01-04T14:30:56.640Z,1.50
2023-01-04T14:33:29.161Z,1.13
2023-01-04T14:36:10.930Z,1.30
2023-01-04T14:38:40.739Z,1.20
2023-01-04T14:41:16.004Z,1.25
2023-01-04T14:43:47.276Z,1.05
2023-01-04T14:46:13.947Z,1.48
2023-01-04T14:48:40.673Z,1.10
2023-01-04T14:51:07.911Z,1.35
2023-01-04T14:53:34.637Z,1.35
2023-01-04T14:56:01.227Z,1.10
2023-01-04T14:58:27.766Z,1.38
2023-01-04T15:00:56.705Z,1.20
2023-01-04T15:03:23.328Z,1.45
2023-01-04T15:05:49.917Z,2.22
2023-01-04T15:08:16.523Z,4.22
2023-01-04T15:10:43.038Z,3.80
2023-01-04T15:13:09.683Z,2.38
2023-01-04T15:15:38.799Z,2.90
2023-01-04T15:18:05.710Z,2.08
2023-01-04T15:20:32.359Z,1.95
2023-01-04T15:22:59.231Z,2.10
2023-01-04T15:25:27.228Z,2.03
2023-01-04T15:27:53.829Z,2.13
2023-01-04T15:30:26.227Z,1.65
2023-01-04T15:32:57.642Z,2.38
2023-01-04T15:35:24.452Z,2.00
2023-01-04T15:37:51.499Z,2.88
2023-01-04T15:40:21.069Z,1.80
2023-01-04T15:42:59.647Z,2.65
2023-01-04T15:45:35.558Z,2.55
2023-01-04T15:48:11.444Z,1.95
2023-01-04T15:50:40.536Z,2.17
2023-01-04T15:53:08.343Z,3.42
2023-01-04T15:55:37.136Z,2.33
2023-01-04T15:58:05.049Z,2.38
2023-01-04T16:00:32.793Z,2.50
2023-01-04T16:02:59.481Z,2.20
2023-01-04T16:05:28.384Z,2.70
2023-01-04T16:07:54.919Z,2.45
2023-01-04T16:10:21.627Z,2.35
2023-01-04T16:12:54.760Z,2.75
2023-01-04T16:15:24.168Z,2.22
2023-01-04T16:17:50.785Z,2.47
2023-01-04T16:20:20.743Z,1.85
2023-01-04T16:22:49.889Z,2.28
2023-01-04T16:25:18.692Z,2.22
2023-01-04T16:27:45.287Z,1.90
2023-01-04T16:30:13.703Z,2.15
2023-01-04T16:32:42.336Z,2.30
2023-01-04T16:35:10.004Z,2.30
2023-01-04T16:37:39.673Z,2.38
2023-01-04T16:40:08.526Z,2.65
2023-01-04T16:42:37.763Z,2.03
2023-01-04T16:45:07.760Z,2.20
2023-01-04T16:47:42.132Z,2.45
2023-01-04T16:50:10.014Z,2.35
2023-01-04T16:52:37.221Z,2.20
2023-01-04T16:55:04.727Z,3.15
2023-01-04T16:57:31.304Z,2.38
2023-01-04T16:59:58.079Z,2.25
2023-01-04T17:02:27.238Z,2.65
2023-01-04T17:04:59.628Z,2.65
2023-01-04T17:07:32.920Z,2.60
2023-01-04T17:10:01.210Z,2.33
2023-01-04T17:15:41.791Z,3.67
2023-01-04T17:18:01.311Z,4.63
2023-01-04T17:20:27.936Z,3.70
2023-01-04T17:22:54.509Z,3.13
2023-01-04T17:25:21.128Z,2.83
2023-01-04T17:27:47.768Z,2.95
2023-01-04T17:30:14.672Z,3.28
2023-01-04T17:32:41.305Z,2.97
2023-01-04T17:35:08.218Z,2.88
2023-01-04T17:37:34.807Z,2.97
2023-01-04T17:40:01.407Z,2.55
2023-01-04T17:42:27.917Z,3.90
2023-01-04T17:44:54.537Z,4.13
2023-01-04T17:47:21.160Z,2.88
2023-01-04T17:49:47.777Z,3.67
2023-01-04T17:52:20.325Z,3.60
2023-01-04T17:54:51.103Z,3.85
2023-01-04T17:57:17.627Z,4.28
2023-01-04T17:59:44.157Z,4.55
2023-01-04T18:02:11.342Z,4.22
2023-01-04T18:04:38.099Z,3.33
2023-01-04T18:07:04.722Z,4.30
2023-01-04T18:09:31.384Z,3.85
2023-01-04T18:11:57.946Z,4.45
2023-01-04T18:14:27.763Z,4.43
2023-01-04T18:16:58.217Z,5.30
2023-01-04T18:19:30.346Z,4.97
2023-01-04T18:21:57.607Z,5.25
2023-01-04T18:24:41.710Z,4.85
2023-01-04T18:27:22.721Z,4.68
2023-01-04T18:29:50.539Z,6.15
2023-01-04T18:32:19.915Z,4.97
2023-01-04T18:34:46.508Z,5.13
2023-01-04T18:37:13.947Z,4.80
2023-01-04T18:39:43.001Z,3.72
2023-01-04T18:42:09.582Z,6.78
2023-01-04T18:44:45.590Z,5.22
2023-01-04T18:47:14.687Z,5.10
2023-01-04T18:49:41.231Z,5.00
2023-01-04T18:52:12.544Z,4.97
2023-01-04T18:54:39.151Z,5.75
2023-01-04T18:57:05.849Z,6.35
2023-01-04T18:59:32.558Z,5.30
2023-01-04T19:02:01.684Z,4.38
2023-01-04T19:04:36.344Z,5.45
2023-01-04T19:07:02.896Z,5.03
2023-01-04T19:09:30.605Z,5.53
2023-01-04T19:11:57.302Z,4.50
2023-01-04T19:14:24.198Z,4.60
2023-01-04T19:16:53.055Z,4.78
2023-01-04T19:19:20.305Z,4.38
2023-01-04T19:21:46.905Z,4.10
2023-01-04T19:24:13.478Z,3.95
2023-01-04T19:26:42.963Z,5.32
2023-01-04T19:29:09.983Z,5.05
2023-01-04T19:31:38.698Z,5.00
2023-01-04T19:34:05.322Z,4.68
2023-01-04T19:36:31.911Z,5.63
2023-01-04T19:38:58.526Z,4.05
2023-01-04T19:41:33.569Z,4.72
2023-01-04T19:44:07.093Z,4.43
2023-01-04T19:46:34.478Z,4.45
2023-01-04T19:49:01.191Z,4.95
2023-01-04T19:51:32.536Z,4.72
2023-01-04T19:54:01.654Z,4.50
2023-01-04T19:56:28.227Z,4.97
2023-01-04T19:58:54.795Z,4.72
2023-01-04T20:01:23.234Z,4.45
2023-01-04T20:03:50.404Z,3.90
2023-01-04T20:06:17.829Z,4.32
2023-01-04T20:08:46.735Z,4.40
2023-01-04T20:11:13.323Z,5.00
2023-01-04T20:13:42.680Z,3.88
2023-01-04T20:16:11.536Z,4.03
2023-01-04T20:18:38.441Z,4.50
2023-01-04T20:21:14.244Z,4.60
2023-01-04T20:23:41.309Z,4.15
2023-01-04T20:26:11.615Z,5.07
2023-01-04T20:28:42.202Z,3.60
2023-01-04T20:31:10.677Z,4.57
2023-01-04T20:33:37.271Z,3.85
2023-01-04T20:36:11.282Z,4.80
2023-01-04T20:38:40.113Z,4.70
2023-01-04T20:41:16.204Z,4.55
2023-01-04T20:43:44.464Z,4.00
2023-01-04T20:46:22.457Z,4.32
2023-01-04T20:48:49.331Z,3.80
2023-01-04T20:51:19.661Z,4.40
2023-01-04T20:53:48.987Z,3.67
2023-01-04T20:56:19.920Z,4.82
2023-01-04T20:58:50.231Z,3.70
2023-01-04T21:01:18.676Z,5.25
2023-01-04T21:03:45.438Z,4.50
2023-01-04T21:06:14.433Z,4.35
2023-01-04T21:08:42.564Z,4.43
2023-01-04T21:11:11.586Z,3.55
2023-01-04T21:13:38.846Z,3.88
2023-01-04T21:16:05.851Z,4.57
2023-01-04T21:18:33.050Z,3.63
2023-01-04T21:21:04.019Z,4.63
2023-01-04T21:23:30.610Z,4.53
2023-01-04T21:25:57.416Z,3.85
2023-01-04T21:28:24.679Z,3.80
2023-01-04T21:30:51.380Z,4.00
2023-01-04T21:33:18.293Z,4.50
2023-01-04T21:35:45.277Z,4.80
2023-01-04T21:38:11.947Z,3.85
2023-01-04T21:40:40.315Z,4.53
2023-01-04T21:43:09.548Z,4.45
2023-01-04T21:45:39.796Z,3.70
2023-01-04T21:48:06.776Z,4.15
2023-01-04T21:50:33.818Z,3.55
2023-01-04T21:53:02.600Z,5.13
2023-01-04T21:55:34.167Z,4.45
2023-01-04T21:58:01.535Z,3.97
2023-01-04T22:00:28.541Z,4.43
2023-01-04T22:02:55.237Z,5.47
2023-01-04T22:05:22.850Z,4.13
2023-01-04T22:07:49.449Z,4.05
2023-01-04T22:10:16.234Z,5.22
2023-01-04T22:12:44.825Z,4.05
2023-01-04T22:15:11.519Z,4.53
2023-01-04T22:17:38.119Z,4.72
2023-01-04T22:20:05.083Z,4.95
2023-01-04T22:22:31.736Z,3.35
2023-01-04T22:25:00.941Z,3.70
2023-01-04T22:27:27.436Z,4.82
2023-01-04T22:29:54.049Z,3.90
2023-01-04T22:32:20.654Z,4.85
2023-01-04T22:34:47.178Z,4.68
2023-01-04T22:37:13.716Z,3.65
2023-01-04T22:39:40.308Z,4.07
2023-01-04T22:42:06.909Z,4.50
2023-01-04T22:44:33.528Z,3.35
2023-01-04T22:47:00.193Z,4.40
2023-01-04T22:49:29.154Z,4.63
2023-01-04T22:51:57.356Z,3.95
2023-01-04T22:54:24.033Z,4.30
2023-01-04T22:56:53.125Z,4.95
2023-01-04T22:59:23.122Z,4.00
2023-01-04T23:01:52.614Z,3.58
2023-01-04T23:04:22.214Z,4.80
2023-01-04T23:06:51.113Z,4.20
2023-01-04T23:09:18.892Z,4.47
2023-01-04T23:11:45.773Z,3.70
2023-01-04T23:14:16.908Z,4.50
2023-01-04T23:16:44.763Z,4.88
2023-01-04T23:19:12.912Z,3.92
2023-01-04T23:21:39.851Z,4.63
2023-01-04T23:24:07.051Z,3.45
2023-01-04T23:26:34.427Z,3.72
2023-01-04T23:29:06.249Z,3.90
2023-01-04T23:31:33.634Z,3.58
2023-01-04T23:34:05.348Z,4.03
2023-01-04T23:36:36.820Z,4.60
2023-01-04T23:39:07.228Z,3.75
2023-01-04T23:41:46.851Z,4.50
2023-01-04T23:44:15.000Z,3.95
2023-01-04T23:46:42.089Z,4.22
2023-01-04T23:49:08.983Z,4.32
2023-01-04T23:51:35.578Z,3.75
2023-01-04T23:54:02.137Z,3.78
2023-01-04T23:56:28.698Z,4.80
2023-01-04T23:58:57.564Z,4.10
